sensor_id;sensor_type;location;lat;lon;timestamp;pressure;altitude;pressure_sealevel;temperature;humidity
1401;BME280;46518;48.842;8.926;2023-02-13T00:01:13;99036.69;;;3.66;81.05
1401;BME280;46518;48.842;8.926;2023-02-13T00:03:41;99021.81;;;3.58;81.14
1401;BME280;46518;48.842;8.926;2023-02-13T00:06:10;99017.09;;;3.62;81.22
1401;BME280;46518;48.842;8.926;2023-02-13T00:08:38;99022.69;;;3.67;80.87
1401;BME280;46518;48.842;8.926;2023-02-13T00:11:06;99030.50;;;3.67;81.67
1401;BME280;46518;48.842;8.926;2023-02-13T00:13:36;99014.78;;;3.51;81.68
1401;BME280;46518;48.842;8.926;2023-02-13T00:16:08;99013.34;;;3.56;81.03
1401;BME280;46518;48.842;8.926;2023-02-13T00:18:40;98995.88;;;3.49;81.78
1401;BME280;46518;48.842;8.926;2023-02-13T00:21:12;99029.25;;;3.79;82.03
1401;BME280;46518;48.842;8.926;2023-02-13T00:23:42;99007.47;;;3.28;81.78
1401;BME280;46518;48.842;8.926;2023-02-13T00:26:13;99007.78;;;3.25;82.21
1401;BME280;46518;48.842;8.926;2023-02-13T00:28:45;99026.72;;;3.35;82.22
1401;BME280;46518;48.842;8.926;2023-02-13T00:31:17;99001.94;;;3.05;82.27
1401;BME280;46518;48.842;8.926;2023-02-13T00:33:48;98986.81;;;3.09;83.27
1401;BME280;46518;48.842;8.926;2023-02-13T00:36:20;99013.34;;;3.30;82.94
1401;BME280;46518;48.842;8.926;2023-02-13T00:38:50;98989.28;;;3.10;82.64
1401;BME280;46518;48.842;8.926;2023-02-13T00:41:20;99005.78;;;3.01;82.23
1401;BME280;46518;48.842;8.926;2023-02-13T00:43:52;98985.41;;;2.96;82.86
1401;BME280;46518;48.842;8.926;2023-02-13T00:46:21;99000.81;;;3.08;82.46
1401;BME280;46518;48.842;8.926;2023-02-13T00:48:52;98998.25;;;3.16;82.94
1401;BME280;46518;48.842;8.926;2023-02-13T00:51:28;99014.50;;;3.36;82.45
1401;BME280;46518;48.842;8.926;2023-02-13T00:54:08;98989.91;;;3.30;82.74
1401;BME280;46518;48.842;8.926;2023-02-13T00:56:47;98986.69;;;3.36;83.02
1401;BME280;46518;48.842;8.926;2023-02-13T00:59:31;98985.97;;;3.26;82.54
1401;BME280;46518;48.842;8.926;2023-02-13T01:02:21;99009.81;;;3.39;83.26
1401;BME280;46518;48.842;8.926;2023-02-13T01:04:57;99028.47;;;3.53;82.88
1401;BME280;46518;48.842;8.926;2023-02-13T01:07:27;99012.06;;;3.34;83.51
1401;BME280;46518;48.842;8.926;2023-02-13T01:09:57;98995.34;;;3.19;83.30
1401;BME280;46518;48.842;8.926;2023-02-13T01:12:26;98990.47;;;3.16;83.20
1401;BME280;46518;48.842;8.926;2023-02-13T01:15:09;98992.19;;;3.07;83.42
1401;BME280;46518;48.842;8.926;2023-02-13T01:17:45;99020.91;;;3.23;83.73
1401;BME280;46518;48.842;8.926;2023-02-13T01:20:16;98984.09;;;2.92;83.44
1401;BME280;46518;48.842;8.926;2023-02-13T01:22:46;98982.16;;;2.94;83.30
1401;BME280;46518;48.842;8.926;2023-02-13T01:25:18;98979.28;;;2.97;83.46
1401;BME280;46518;48.842;8.926;2023-02-13T01:27:55;99004.13;;;3.18;83.83
1401;BME280;46518;48.842;8.926;2023-02-13T01:30:26;99015.59;;;3.25;83.98
1401;BME280;46518;48.842;8.926;2023-02-13T01:33:09;98975.25;;;3.03;84.70
1401;BME280;46518;48.842;8.926;2023-02-13T01:35:56;98993.91;;;2.98;86.09
1401;BME280;46518;48.842;8.926;2023-02-13T01:38:29;98980.22;;;2.96;85.75
1401;BME280;46518;48.842;8.926;2023-02-13T01:41:01;98978.22;;;3.08;85.66
1401;BME280;46518;48.842;8.926;2023-02-13T01:43:46;98983.78;;;3.13;85.55
1401;BME280;46518;48.842;8.926;2023-02-13T01:46:21;98991.72;;;3.12;84.60
1401;BME280;46518;48.842;8.926;2023-02-13T01:48:55;98968.56;;;3.00;84.90
1401;BME280;46518;48.842;8.926;2023-02-13T01:51:31;98983.88;;;2.86;86.09
1401;BME280;46518;48.842;8.926;2023-02-13T01:54:05;98978.97;;;3.00;86.19
1401;BME280;46518;48.842;8.926;2023-02-13T01:56:41;99011.84;;;3.28;85.59
1401;BME280;46518;48.842;8.926;2023-02-13T01:59:32;98981.31;;;3.12;85.95
1401;BME280;46518;48.842;8.926;2023-02-13T02:02:12;98981.16;;;3.13;85.09
1401;BME280;46518;48.842;8.926;2023-02-13T02:05:02;98973.81;;;3.09;84.79
1401;BME280;46518;48.842;8.926;2023-02-13T02:07:50;99001.00;;;3.14;84.27
1401;BME280;46518;48.842;8.926;2023-02-13T02:10:28;99013.47;;;3.29;84.39
1401;BME280;46518;48.842;8.926;2023-02-13T02:13:06;99018.84;;;3.27;84.27
1401;BME280;46518;48.842;8.926;2023-02-13T02:15:40;99015.59;;;3.25;84.25
1401;BME280;46518;48.842;8.926;2023-02-13T02:18:21;99001.47;;;3.10;84.03
1401;BME280;46518;48.842;8.926;2023-02-13T02:21:35;98981.03;;;2.97;84.40
1401;BME280;46518;48.842;8.926;2023-02-13T02:24:40;98971.09;;;2.92;84.47
1401;BME280;46518;48.842;8.926;2023-02-13T02:34:03;98971.38;;;3.07;84.74
1401;BME280;46518;48.842;8.926;2023-02-13T02:37:04;98990.16;;;3.19;85.20
1401;BME280;46518;48.842;8.926;2023-02-13T02:40:13;98998.63;;;3.21;83.94
1401;BME280;46518;48.842;8.926;2023-02-13T02:43:03;98979.03;;;2.91;84.96
1401;BME280;46518;48.842;8.926;2023-02-13T02:46:14;98992.34;;;3.06;84.68
1401;BME280;46518;48.842;8.926;2023-02-13T02:49:03;98991.16;;;3.00;85.02
1401;BME280;46518;48.842;8.926;2023-02-13T02:52:00;98977.13;;;2.75;84.92
1401;BME280;46518;48.842;8.926;2023-02-13T02:54:49;98963.41;;;2.65;85.04
1401;BME280;46518;48.842;8.926;2023-02-13T02:57:55;99005.50;;;2.86;84.96
1401;BME280;46518;48.842;8.926;2023-02-13T03:00:45;98957.28;;;2.74;85.18
1401;BME280;46518;48.842;8.926;2023-02-13T03:03:35;98987.34;;;2.94;85.40
1401;BME280;46518;48.842;8.926;2023-02-13T03:06:26;98984.97;;;3.01;84.74
1401;BME280;46518;48.842;8.926;2023-02-13T03:09:02;98976.66;;;2.97;85.14
1401;BME280;46518;48.842;8.926;2023-02-13T03:11:48;98991.97;;;3.00;84.99
1401;BME280;46518;48.842;8.926;2023-02-13T03:14:36;98965.81;;;2.84;85.55
1401;BME280;46518;48.842;8.926;2023-02-13T03:17:09;98968.94;;;2.88;85.37
1401;BME280;46518;48.842;8.926;2023-02-13T03:20:02;98998.88;;;3.10;85.28
1401;BME280;46518;48.842;8.926;2023-02-13T03:23:04;99002.13;;;3.12;85.38
1401;BME280;46518;48.842;8.926;2023-02-13T03:25:44;98994.94;;;3.06;85.09
1401;BME280;46518;48.842;8.926;2023-02-13T03:28:21;98980.66;;;2.92;84.66
1401;BME280;46518;48.842;8.926;2023-02-13T03:31:19;98988.75;;;3.07;85.27
1401;BME280;46518;48.842;8.926;2023-02-13T03:33:56;98996.66;;;2.79;86.05
1401;BME280;46518;48.842;8.926;2023-02-13T03:36:33;99002.03;;;2.77;87.41
1401;BME280;46518;48.842;8.926;2023-02-13T03:39:33;99003.50;;;2.62;89.43
1401;BME280;46518;48.842;8.926;2023-02-13T03:42:07;98977.88;;;2.22;91.00
1401;BME280;46518;48.842;8.926;2023-02-13T03:44:40;98988.78;;;2.07;93.75
1401;BME280;46518;48.842;8.926;2023-02-13T03:47:13;98978.56;;;1.96;95.32
1401;BME280;46518;48.842;8.926;2023-02-13T03:49:46;98984.16;;;2.01;96.10
1401;BME280;46518;48.842;8.926;2023-02-13T03:52:38;99003.13;;;2.02;96.58
1401;BME280;46518;48.842;8.926;2023-02-13T03:55:13;98988.81;;;1.98;97.25
1401;BME280;46518;48.842;8.926;2023-02-13T03:58:03;98994.59;;;2.37;95.82
1401;BME280;46518;48.842;8.926;2023-02-13T04:00:53;98978.44;;;2.43;94.93
1401;BME280;46518;48.842;8.926;2023-02-13T04:03:26;98998.13;;;2.64;94.59
1401;BME280;46518;48.842;8.926;2023-02-13T04:06:01;99009.34;;;2.82;93.42
1401;BME280;46518;48.842;8.926;2023-02-13T04:08:32;98992.72;;;2.75;92.77
1401;BME280;46518;48.842;8.926;2023-02-13T04:11:07;99002.53;;;2.81;92.34
1401;BME280;46518;48.842;8.926;2023-02-13T04:13:41;99020.41;;;2.84;91.56
1401;BME280;46518;48.842;8.926;2023-02-13T04:16:15;99020.97;;;2.88;91.45
1401;BME280;46518;48.842;8.926;2023-02-13T04:18:46;99013.00;;;2.89;91.19
1401;BME280;46518;48.842;8.926;2023-02-13T04:21:16;99010.13;;;2.92;89.98
1401;BME280;46518;48.842;8.926;2023-02-13T04:23:44;99030.53;;;3.05;89.47
1401;BME280;46518;48.842;8.926;2023-02-13T04:26:16;99013.44;;;3.02;89.20
1401;BME280;46518;48.842;8.926;2023-02-13T04:28:46;98992.19;;;2.89;88.92
1401;BME280;46518;48.842;8.926;2023-02-13T04:31:16;99020.78;;;2.89;87.82
1401;BME280;46518;48.842;8.926;2023-02-13T04:33:45;99014.66;;;2.72;87.53
1401;BME280;46518;48.842;8.926;2023-02-13T04:36:14;99022.28;;;2.74;88.22
1401;BME280;46518;48.842;8.926;2023-02-13T04:38:43;99038.34;;;2.87;87.41
1401;BME280;46518;48.842;8.926;2023-02-13T04:41:14;99038.34;;;2.87;88.62
1401;BME280;46518;48.842;8.926;2023-02-13T04:43:42;99034.91;;;2.87;88.11
1401;BME280;46518;48.842;8.926;2023-02-13T04:46:11;99038.06;;;2.90;87.60
1401;BME280;46518;48.842;8.926;2023-02-13T04:48:41;99019.09;;;2.80;87.76
1401;BME280;46518;48.842;8.926;2023-02-13T04:51:11;99018.06;;;2.73;86.75
1401;BME280;46518;48.842;8.926;2023-02-13T04:53:43;99005.13;;;2.63;86.86
1401;BME280;46518;48.842;8.926;2023-02-13T04:56:15;99023.47;;;2.62;87.32
1401;BME280;46518;48.842;8.926;2023-02-13T04:58:47;99037.88;;;2.56;87.00
1401;BME280;46518;48.842;8.926;2023-02-13T05:01:21;99016.25;;;2.55;86.43
1401;BME280;46518;48.842;8.926;2023-02-13T05:03:55;99006.34;;;2.41;86.42
1401;BME280;46518;48.842;8.926;2023-02-13T05:06:25;99039.91;;;2.62;86.79
1401;BME280;46518;48.842;8.926;2023-02-13T05:08:56;99049.75;;;2.58;86.10
1401;BME280;46518;48.842;8.926;2023-02-13T05:11:35;99029.56;;;2.52;85.43
1401;BME280;46518;48.842;8.926;2023-02-13T05:14:04;99027.59;;;2.54;85.89
1401;BME280;46518;48.842;8.926;2023-02-13T05:16:33;99008.06;;;2.32;85.38
1401;BME280;46518;48.842;8.926;2023-02-13T05:19:03;99041.72;;;2.52;85.48
1401;BME280;46518;48.842;8.926;2023-02-13T05:21:32;99008.88;;;2.33;84.87
1401;BME280;46518;48.842;8.926;2023-02-13T05:24:18;99039.41;;;2.49;85.09
1401;BME280;46518;48.842;8.926;2023-02-13T05:26:54;99046.47;;;2.56;85.20
1401;BME280;46518;48.842;8.926;2023-02-13T05:29:40;99038.22;;;2.43;83.91
1401;BME280;46518;48.842;8.926;2023-02-13T05:32:16;99007.88;;;2.16;84.81
1401;BME280;46518;48.842;8.926;2023-02-13T05:34:52;99007.06;;;2.15;84.57
1401;BME280;46518;48.842;8.926;2023-02-13T05:37:22;99008.16;;;2.13;85.01
1401;BME280;46518;48.842;8.926;2023-02-13T05:39:52;99022.44;;;2.27;84.53
1401;BME280;46518;48.842;8.926;2023-02-13T05:42:34;99011.47;;;2.05;84.41
1401;BME280;46518;48.842;8.926;2023-02-13T05:45:28;99032.25;;;2.05;85.88
1401;BME280;46518;48.842;8.926;2023-02-13T05:48:06;99022.72;;;1.96;86.15
1401;BME280;46518;48.842;8.926;2023-02-13T05:50:34;99011.25;;;1.89;86.12
1401;BME280;46518;48.842;8.926;2023-02-13T05:53:03;99022.44;;;1.99;87.11
1401;BME280;46518;48.842;8.926;2023-02-13T05:55:31;99010.81;;;2.03;86.65
1401;BME280;46518;48.842;8.926;2023-02-13T05:58:01;99005.94;;;1.90;87.68
1401;BME280;46518;48.842;8.926;2023-02-13T06:00:29;99012.72;;;2.01;87.59
1401;BME280;46518;48.842;8.926;2023-02-13T06:02:58;99026.50;;;2.02;87.05
1401;BME280;46518;48.842;8.926;2023-02-13T06:05:26;99018.59;;;2.03;86.48
1401;BME280;46518;48.842;8.926;2023-02-13T06:07:54;99024.25;;;2.16;87.40
1401;BME280;46518;48.842;8.926;2023-02-13T06:10:22;99033.88;;;2.34;87.28
1401;BME280;46518;48.842;8.926;2023-02-13T06:12:50;99035.25;;;2.38;87.21
1401;BME280;46518;48.842;8.926;2023-02-13T06:15:20;99037.59;;;2.31;86.72
1401;BME280;46518;48.842;8.926;2023-02-13T06:17:48;99016.59;;;2.25;86.49
1401;BME280;46518;48.842;8.926;2023-02-13T06:20:16;99018.25;;;2.16;86.65
1401;BME280;46518;48.842;8.926;2023-02-13T06:22:47;99040.88;;;2.33;86.62
1401;BME280;46518;48.842;8.926;2023-02-13T06:25:16;99033.53;;;2.47;86.61
1401;BME280;46518;48.842;8.926;2023-02-13T06:27:46;99003.13;;;2.29;86.32
1401;BME280;46518;48.842;8.926;2023-02-13T06:30:17;99026.03;;;2.44;86.06
1401;BME280;46518;48.842;8.926;2023-02-13T06:32:49;99013.69;;;2.28;85.42
1401;BME280;46518;48.842;8.926;2023-02-13T06:35:19;99041.53;;;2.35;85.33
1401;BME280;46518;48.842;8.926;2023-02-13T06:37:48;99024.22;;;1.99;85.70
1401;BME280;46518;48.842;8.926;2023-02-13T06:40:19;99032.97;;;2.25;85.30
1401;BME280;46518;48.842;8.926;2023-02-13T06:42:49;99002.31;;;2.01;85.15
1401;BME280;46518;48.842;8.926;2023-02-13T06:45:18;99009.56;;;2.07;85.81
1401;BME280;46518;48.842;8.926;2023-02-13T06:47:52;99033.31;;;2.12;85.79
1401;BME280;46518;48.842;8.926;2023-02-13T06:50:21;99010.41;;;1.98;85.57
1401;BME280;46518;48.842;8.926;2023-02-13T06:52:52;99011.91;;;2.01;86.12
1401;BME280;46518;48.842;8.926;2023-02-13T06:55:21;99036.38;;;1.98;87.31
1401;BME280;46518;48.842;8.926;2023-02-13T06:57:51;99035.53;;;2.07;87.64
1401;BME280;46518;48.842;8.926;2023-02-13T07:00:21;99005.34;;;1.97;87.23
1401;BME280;46518;48.842;8.926;2023-02-13T07:03:00;99024.44;;;2.15;86.70
1401;BME280;46518;48.842;8.926;2023-02-13T07:05:31;98998.53;;;1.96;87.16
1401;BME280;46518;48.842;8.926;2023-02-13T07:08:01;99007.56;;;1.91;86.95
1401;BME280;46518;48.842;8.926;2023-02-13T07:10:31;99035.81;;;2.04;86.85
1401;BME280;46518;48.842;8.926;2023-02-13T07:13:00;99021.81;;;2.15;87.24
1401;BME280;46518;48.842;8.926;2023-02-13T07:15:33;99034.09;;;2.23;87.16
1401;BME280;46518;48.842;8.926;2023-02-13T07:18:04;99040.06;;;2.33;87.34
1401;BME280;46518;48.842;8.926;2023-02-13T07:20:34;99036.53;;;2.24;86.77
1401;BME280;46518;48.842;8.926;2023-02-13T07:23:05;99062.72;;;2.41;87.09
1401;BME280;46518;48.842;8.926;2023-02-13T07:25:35;99033.50;;;2.29;86.51
1401;BME280;46518;48.842;8.926;2023-02-13T07:28:09;99037.97;;;2.36;86.95
1401;BME280;46518;48.842;8.926;2023-02-13T07:30:38;99026.09;;;2.34;86.56
1401;BME280;46518;48.842;8.926;2023-02-13T07:33:10;99028.63;;;2.44;86.29
1401;BME280;46518;48.842;8.926;2023-02-13T07:35:45;99054.66;;;2.62;86.16
1401;BME280;46518;48.842;8.926;2023-02-13T07:38:15;99025.75;;;2.47;86.16
1401;BME280;46518;48.842;8.926;2023-02-13T07:40:45;99029.81;;;2.49;86.50
1401;BME280;46518;48.842;8.926;2023-02-13T07:43:15;99069.69;;;2.68;86.39
1401;BME280;46518;48.842;8.926;2023-02-13T07:45:44;99067.91;;;2.86;86.44
1401;BME280;46518;48.842;8.926;2023-02-13T07:48:16;99029.03;;;2.67;87.30
1401;BME280;46518;48.842;8.926;2023-02-13T07:50:46;99029.78;;;2.59;87.65
1401;BME280;46518;48.842;8.926;2023-02-13T07:53:16;99027.88;;;2.33;90.16
1401;BME280;46518;48.842;8.926;2023-02-13T07:56:07;99060.28;;;2.29;93.33
1401;BME280;46518;48.842;8.926;2023-02-13T07:58:55;99054.97;;;1.93;97.12
1401;BME280;46518;48.842;8.926;2023-02-13T08:01:54;99035.75;;;1.77;99.21
1401;BME280;46518;48.842;8.926;2023-02-13T08:04:37;99013.28;;;1.58;100.00
1401;BME280;46518;48.842;8.926;2023-02-13T08:07:16;99029.75;;;1.76;100.00
1401;BME280;46518;48.842;8.926;2023-02-13T08:09:56;99034.25;;;1.84;100.00
1401;BME280;46518;48.842;8.926;2023-02-13T08:12:49;99051.41;;;1.94;100.00
1401;BME280;46518;48.842;8.926;2023-02-13T08:15:35;99034.22;;;1.93;100.00
1401;BME280;46518;48.842;8.926;2023-02-13T08:18:09;99055.38;;;2.26;100.00
1401;BME280;46518;48.842;8.926;2023-02-13T08:20:51;99052.97;;;2.25;100.00
1401;BME280;46518;48.842;8.926;2023-02-13T08:23:33;99016.97;;;2.02;100.00
1401;BME280;46518;48.842;8.926;2023-02-13T08:26:12;99053.25;;;2.40;100.00
1401;BME280;46518;48.842;8.926;2023-02-13T08:28:49;99031.63;;;2.21;100.00
1401;BME280;46518;48.842;8.926;2023-02-13T08:31:37;99041.97;;;2.31;100.00
1401;BME280;46518;48.842;8.926;2023-02-13T08:34:16;99046.41;;;2.21;100.00
1401;BME280;46518;48.842;8.926;2023-02-13T08:36:52;99019.44;;;1.94;100.00
1401;BME280;46518;48.842;8.926;2023-02-13T08:39:35;99014.25;;;1.94;100.00
1401;BME280;46518;48.842;8.926;2023-02-13T08:42:14;99024.06;;;2.00;100.00
1401;BME280;46518;48.842;8.926;2023-02-13T08:44:53;99011.94;;;1.91;100.00
1401;BME280;46518;48.842;8.926;2023-02-13T08:47:42;99004.97;;;1.91;100.00
1401;BME280;46518;48.842;8.926;2023-02-13T08:50:28;99010.88;;;2.11;100.00
1401;BME280;46518;48.842;8.926;2023-02-13T08:53:12;99026.13;;;2.24;100.00
1401;BME280;46518;48.842;8.926;2023-02-13T08:55:52;99031.06;;;2.27;100.00
1401;BME280;46518;48.842;8.926;2023-02-13T08:58:30;99019.28;;;2.33;100.00
1401;BME280;46518;48.842;8.926;2023-02-13T09:01:15;99037.56;;;2.59;100.00
1401;BME280;46518;48.842;8.926;2023-02-13T09:03:54;99038.69;;;2.56;100.00
1401;BME280;46518;48.842;8.926;2023-02-13T09:06:45;99046.44;;;2.84;100.00
1401;BME280;46518;48.842;8.926;2023-02-13T09:09:37;99013.66;;;2.91;99.81
1401;BME280;46518;48.842;8.926;2023-02-13T09:12:13;99017.16;;;3.18;98.79
1401;BME280;46518;48.842;8.926;2023-02-13T09:14:44;99013.72;;;2.99;99.38
1401;BME280;46518;48.842;8.926;2023-02-13T09:17:25;99046.22;;;3.57;97.96
1401;BME280;46518;48.842;8.926;2023-02-13T09:20:02;99036.69;;;3.22;97.65
1401;BME280;46518;48.842;8.926;2023-02-13T09:22:40;99015.00;;;2.95;97.44
1401;BME280;46518;48.842;8.926;2023-02-13T09:25:19;99025.53;;;3.30;97.22
1401;BME280;46518;48.842;8.926;2023-02-13T09:27:58;99025.16;;;3.07;97.39
1401;BME280;46518;48.842;8.926;2023-02-13T09:30:32;99012.56;;;2.94;98.77
1401;BME280;46518;48.842;8.926;2023-02-13T09:33:10;99024.06;;;3.27;98.93
1401;BME280;46518;48.842;8.926;2023-02-13T09:35:46;99009.03;;;3.21;97.89
1401;BME280;46518;48.842;8.926;2023-02-13T09:38:20;99013.47;;;3.29;97.56
1401;BME280;46518;48.842;8.926;2023-02-13T09:41:01;99018.19;;;3.51;96.05
1401;BME280;46518;48.842;8.926;2023-02-13T09:43:36;99052.28;;;3.66;95.72
1401;BME280;46518;48.842;8.926;2023-02-13T09:46:16;99040.09;;;3.66;95.71
1401;BME280;46518;48.842;8.926;2023-02-13T09:48:52;99032.94;;;3.95;94.66
1401;BME280;46518;48.842;8.926;2023-02-13T09:51:30;99059.66;;;4.39;93.42
1401;BME280;46518;48.842;8.926;2023-02-13T09:54:03;99056.13;;;4.57;92.60
1401;BME280;46518;48.842;8.926;2023-02-13T09:56:47;99054.19;;;4.50;90.51
1401;BME280;46518;48.842;8.926;2023-02-13T09:59:39;99060.78;;;4.28;90.17
1401;BME280;46518;48.842;8.926;2023-02-13T10:02:41;99050.97;;;3.88;91.24
1401;BME280;46518;48.842;8.926;2023-02-13T10:05:32;99061.38;;;3.88;93.08
1401;BME280;46518;48.842;8.926;2023-02-13T10:08:19;99050.47;;;3.84;93.16
1401;BME280;46518;48.842;8.926;2023-02-13T10:11:03;99039.06;;;3.85;93.86
1401;BME280;46518;48.842;8.926;2023-02-13T10:13:49;99051.63;;;3.64;92.70
1401;BME280;46518;48.842;8.926;2023-02-13T10:16:29;99075.69;;;4.10;92.17
1401;BME280;46518;48.842;8.926;2023-02-13T10:19:18;99040.13;;;4.01;90.68
1401;BME280;46518;48.842;8.926;2023-02-13T10:22:04;99028.81;;;4.26;90.66
1401;BME280;46518;48.842;8.926;2023-02-13T10:24:42;99045.88;;;4.55;89.23
1401;BME280;46518;48.842;8.926;2023-02-13T10:27:20;99047.56;;;4.81;87.96
1401;BME280;46518;48.842;8.926;2023-02-13T10:29:57;99043.19;;;4.89;87.12
1401;BME280;46518;48.842;8.926;2023-02-13T10:32:47;99043.00;;;4.99;85.94
1401;BME280;46518;48.842;8.926;2023-02-13T10:35:39;99032.38;;;4.76;85.17
1401;BME280;46518;48.842;8.926;2023-02-13T10:38:19;99061.94;;;4.85;86.32
1401;BME280;46518;48.842;8.926;2023-02-13T10:41:12;99037.47;;;4.86;85.48
1401;BME280;46518;48.842;8.926;2023-02-13T10:44:07;99055.09;;;5.16;84.87
1401;BME280;46518;48.842;8.926;2023-02-13T10:46:57;99037.66;;;4.92;84.09
1401;BME280;46518;48.842;8.926;2023-02-13T10:49:50;99042.88;;;5.17;83.81
1401;BME280;46518;48.842;8.926;2023-02-13T10:52:32;99034.38;;;5.31;83.53
1401;BME280;46518;48.842;8.926;2023-02-13T10:55:18;99048.91;;;5.09;84.59
1401;BME280;46518;48.842;8.926;2023-02-13T10:58:08;99025.72;;;5.06;84.68
1401;BME280;46518;48.842;8.926;2023-02-13T11:00:49;99029.00;;;5.08;87.20
1401;BME280;46518;48.842;8.926;2023-02-13T11:03:27;99039.13;;;5.28;84.81
1401;BME280;46518;48.842;8.926;2023-02-13T11:06:05;99044.81;;;5.56;83.93
1401;BME280;46518;48.842;8.926;2023-02-13T11:08:45;99042.38;;;5.46;83.73
1401;BME280;46518;48.842;8.926;2023-02-13T11:11:29;99011.22;;;5.45;82.78
1401;BME280;46518;48.842;8.926;2023-02-13T11:14:15;99027.41;;;6.04;82.86
1401;BME280;46518;48.842;8.926;2023-02-13T11:16:52;99015.00;;;6.06;80.55
1401;BME280;46518;48.842;8.926;2023-02-13T11:19:34;98995.50;;;5.69;79.78
1401;BME280;46518;48.842;8.926;2023-02-13T11:22:10;99005.72;;;5.79;82.28
1401;BME280;46518;48.842;8.926;2023-02-13T11:24:50;98994.47;;;5.87;81.40
1401;BME280;46518;48.842;8.926;2023-02-13T11:27:30;99021.28;;;6.28;81.26
1401;BME280;46518;48.842;8.926;2023-02-13T11:30:06;98996.91;;;6.59;81.54
1401;BME280;46518;48.842;8.926;2023-02-13T11:32:57;98985.69;;;6.27;77.21
1401;BME280;46518;48.842;8.926;2023-02-13T11:35:42;99010.44;;;6.94;76.27
1401;BME280;46518;48.842;8.926;2023-02-13T11:38:22;98987.41;;;6.89;76.14
1401;BME280;46518;48.842;8.926;2023-02-13T11:41:04;98994.69;;;7.02;75.62
1401;BME280;46518;48.842;8.926;2023-02-13T11:43:36;99015.75;;;7.46;76.55
1401;BME280;46518;48.842;8.926;2023-02-13T11:46:06;98990.72;;;7.59;74.40
1401;BME280;46518;48.842;8.926;2023-02-13T11:48:36;99009.81;;;7.97;74.43
1401;BME280;46518;48.842;8.926;2023-02-13T11:51:09;98993.16;;;8.19;73.41
1401;BME280;46518;48.842;8.926;2023-02-13T11:53:56;98991.69;;;8.32;71.05
1401;BME280;46518;48.842;8.926;2023-02-13T11:56:47;99006.91;;;8.21;72.34
1401;BME280;46518;48.842;8.926;2023-02-13T11:59:46;99011.41;;;8.13;70.31
1401;BME280;46518;48.842;8.926;2023-02-13T12:02:20;99004.63;;;8.04;71.71
1401;BME280;46518;48.842;8.926;2023-02-13T12:04:53;99007.22;;;8.33;72.20
1401;BME280;46518;48.842;8.926;2023-02-13T12:07:40;98976.00;;;8.38;69.22
1401;BME280;46518;48.842;8.926;2023-02-13T12:10:27;98992.16;;;8.72;71.43
1401;BME280;46518;48.842;8.926;2023-02-13T12:13:11;99003.16;;;8.82;70.10
1401;BME280;46518;48.842;8.926;2023-02-13T12:15:46;98974.25;;;8.60;68.48
1401;BME280;46518;48.842;8.926;2023-02-13T12:18:28;98997.72;;;9.33;67.84
1401;BME280;46518;48.842;8.926;2023-02-13T12:21:10;98995.13;;;9.68;66.77
1401;BME280;46518;48.842;8.926;2023-02-13T12:23:59;98999.09;;;9.85;65.54
1401;BME280;46518;48.842;8.926;2023-02-13T12:26:39;98987.69;;;10.13;65.19
1401;BME280;46518;48.842;8.926;2023-02-13T12:29:26;98986.75;;;10.27;63.59
1401;BME280;46518;48.842;8.926;2023-02-13T12:32:12;98968.38;;;10.41;63.22
1401;BME280;46518;48.842;8.926;2023-02-13T12:34:59;98954.03;;;10.50;62.78
1401;BME280;46518;48.842;8.926;2023-02-13T12:37:48;98976.00;;;10.84;62.08
1401;BME280;46518;48.842;8.926;2023-02-13T12:40:54;98949.00;;;10.75;60.70
1401;BME280;46518;48.842;8.926;2023-02-13T12:44:03;98983.91;;;10.97;59.56
1401;BME280;46518;48.842;8.926;2023-02-13T12:46:48;98956.91;;;10.88;59.23
1401;BME280;46518;48.842;8.926;2023-02-13T12:52:36;98940.31;;;10.88;58.43
1401;BME280;46518;48.842;8.926;2023-02-13T12:55:27;98934.84;;;10.89;58.23
1401;BME280;46518;48.842;8.926;2023-02-13T12:58:22;98950.88;;;11.01;58.93
1401;BME280;46518;48.842;8.926;2023-02-13T13:01:11;98945.97;;;10.98;58.31
1401;BME280;46518;48.842;8.926;2023-02-13T13:04:03;98940.34;;;11.01;57.51
1401;BME280;46518;48.842;8.926;2023-02-13T13:06:50;98959.38;;;11.16;57.04
1401;BME280;46518;48.842;8.926;2023-02-13T13:09:49;98945.41;;;11.16;56.68
1401;BME280;46518;48.842;8.926;2023-02-13T13:12:38;98925.09;;;11.03;56.61
1401;BME280;46518;48.842;8.926;2023-02-13T13:15:31;98950.84;;;11.14;56.91
1401;BME280;46518;48.842;8.926;2023-02-13T13:18:30;98922.06;;;10.93;56.28
1401;BME280;46518;48.842;8.926;2023-02-13T13:21:25;98955.53;;;11.12;56.61
1401;BME280;46518;48.842;8.926;2023-02-13T13:24:08;98954.50;;;11.07;56.54
1401;BME280;46518;48.842;8.926;2023-02-13T13:26:55;98919.03;;;10.89;56.33
1401;BME280;46518;48.842;8.926;2023-02-13T13:29:32;98949.63;;;11.10;56.26
1401;BME280;46518;48.842;8.926;2023-02-13T13:32:15;98949.63;;;11.10;56.00
1401;BME280;46518;48.842;8.926;2023-02-13T13:34:46;98914.19;;;10.86;55.51
1401;BME280;46518;48.842;8.926;2023-02-13T13:37:22;98938.50;;;10.95;56.16
1401;BME280;46518;48.842;8.926;2023-02-13T13:40:00;98923.88;;;10.86;56.08
1401;BME280;46518;48.842;8.926;2023-02-13T13:42:37;98953.09;;;11.04;56.33
1401;BME280;46518;48.842;8.926;2023-02-13T13:45:21;98944.56;;;11.02;55.73
1401;BME280;46518;48.842;8.926;2023-02-13T13:51:15;98928.56;;;10.97;55.93
1401;BME280;46518;48.842;8.926;2023-02-13T13:54:24;98910.34;;;10.89;56.02
1401;BME280;46518;48.842;8.926;2023-02-13T13:57:06;98934.25;;;11.07;55.21
1401;BME280;46518;48.842;8.926;2023-02-13T14:00:00;98946.38;;;11.08;55.28
1401;BME280;46518;48.842;8.926;2023-02-13T14:02:38;98919.03;;;10.89;55.43
1401;BME280;46518;48.842;8.926;2023-02-13T14:05:22;98952.09;;;11.18;55.42
1401;BME280;46518;48.842;8.926;2023-02-13T14:08:01;98932.59;;;11.13;55.50
1401;BME280;46518;48.842;8.926;2023-02-13T14:11:05;98913.34;;;11.06;55.05
1401;BME280;46518;48.842;8.926;2023-02-13T14:13:39;98920.25;;;11.07;54.65
1401;BME280;46518;48.842;8.926;2023-02-13T14:16:37;98913.16;;;11.07;54.26
1401;BME280;46518;48.842;8.926;2023-02-13T14:19:25;98925.53;;;11.13;54.06
1401;BME280;46518;48.842;8.926;2023-02-13T14:22:25;98919.44;;;11.06;54.62
1401;BME280;46518;48.842;8.926;2023-02-13T14:25:06;98943.97;;;11.13;54.23
1401;BME280;46518;48.842;8.926;2023-02-13T14:27:56;98942.72;;;11.22;54.52
1401;BME280;46518;48.842;8.926;2023-02-13T14:30:28;98914.75;;;11.08;54.04
1401;BME280;46518;48.842;8.926;2023-02-13T14:33:01;98911.13;;;11.09;54.38
1401;BME280;46518;48.842;8.926;2023-02-13T14:35:35;98930.59;;;11.21;54.31
1401;BME280;46518;48.842;8.926;2023-02-13T14:38:22;98946.97;;;11.30;54.09